Corder, Missouri
Current Conditions -  °F | °C
As of 4:55 AM on Friday 28 Nov 2014 (Local Time) from KRCM Reporting Station
Clear Clear  
Wind Chill: 25°   Ceiling: Unl
Heat Index: 32°   Visibility: 10mi
Dew Point: 25°   Wind: 8mph
Humidity: 75%   Direction: 140°SE
Pressure: 30.13"   Gusts: NA
Location:  39.1°N, 93.64°W
Report Text: KRCM 281055Z AUTO 14007KT 10SM CLR 00/M04 A3013 RMK AO2
Loading
Personal Weather Stations






























Interactive Weather Map New forecast layout! Learn more

10-Day Weather Forecast

Advertisements
Track Severe Weather on mobile